Time;durP1;ratioP1;P1;durP2;ratioP2;P2;SDS_P1;SDS_P2;PMS_P1;PMS_P2;Temp;Humidity;BMP_temperature;BMP_pressure;BME280_temperature;BME280_humidity;BME280_pressure;Samples;Min_cycle;Max_cycle;Signal;HPM_P1;HPM_P2
2024/02/15 00:01:01;;;;;;;0.20;0.20;;;;;;;;;;5013958;28;20064;-81
2024/02/15 00:03:27;;;;;;;0.40;0.40;;;;;;;;;;5013561;28;20038;-83
2024/02/15 00:05:53;;;;;;;0.10;0.10;;;;;;;;;;5013235;28;20121;-83
2024/02/15 00:08:20;;;;;;;0.10;0.10;;;;;;;;;;5013306;28;20084;-83
2024/02/15 00:10:47;;;;;;;0.20;0.20;;;;;;;;;;5013056;28;20049;-83
2024/02/15 00:13:13;;;;;;;0.20;0.20;;;;;;;;;;5013038;28;20042;-82
2024/02/15 00:15:39;;;;;;;0.10;0.10;;;;;;;;;;5013431;28;20081;-81
2024/02/15 00:18:07;;;;;;;0.38;0.38;;;;;;;;;;5013226;28;20129;-81
2024/02/15 00:20:35;;;;;;;0.10;0.10;;;;;;;;;;5013017;28;20042;-82
2024/02/15 00:23:01;;;;;;;0.57;0.30;;;;;;;;;;5012991;28;20034;-82
2024/02/15 00:25:27;;;;;;;0.30;0.30;;;;;;;;;;5012836;28;20592;-82
2024/02/15 00:27:53;;;;;;;0.10;0.10;;;;;;;;;;5013170;28;20068;-82
2024/02/15 00:30:19;;;;;;;0.25;0.25;;;;;;;;;;5012997;28;20124;-82
2024/02/15 00:32:46;;;;;;;0.10;0.10;;;;;;;;;;5012784;28;20048;-82
2024/02/15 00:35:13;;;;;;;1.05;1.05;;;;;;;;;;5012751;28;20041;-82
2024/02/15 00:37:39;;;;;;;0.30;0.30;;;;;;;;;;4995661;28;20042;-82
2024/02/15 00:40:05;;;;;;;0.38;0.20;;;;;;;;;;5012582;28;20052;-82
2024/02/15 00:42:31;;;;;;;0.10;0.10;;;;;;;;;;4996677;28;20034;-81
2024/02/15 00:44:58;;;;;;;0.10;0.10;;;;;;;;;;4996410;28;20052;-82
2024/02/15 00:47:24;;;;;;;0.10;0.10;;;;;;;;;;5012437;28;20042;-82
2024/02/15 00:49:52;;;;;;;0.30;0.30;;;;;;;;;;5012668;28;20061;-82
2024/02/15 00:52:18;;;;;;;0.20;0.20;;;;;;;;;;4996651;28;20046;-82
2024/02/15 00:54:45;;;;;;;0.20;0.20;;;;;;;;;;5012051;28;20058;-82
2024/02/15 00:57:11;;;;;;;0.60;0.60;;;;;;;;;;4996100;28;20056;-82
2024/02/15 00:59:37;;;;;;;0.10;0.10;;;;;;;;;;4996497;28;20100;-81
2024/02/15 01:02:03;;;;;;;0.10;0.10;;;;;;;;;;4995941;28;20045;-82
2024/02/15 01:04:32;;;;;;;0.10;0.10;;;;;;;;;;5012558;28;20386;-81
2024/02/15 01:06:58;;;;;;;0.10;0.10;;;;;;;;;;4996397;28;20093;-82
2024/02/15 01:09:24;;;;;;;0.10;0.10;;;;;;;;;;4996181;28;20397;-81
2024/02/15 01:11:51;;;;;;;0.10;0.10;;;;;;;;;;5012172;28;20057;-81
2024/02/15 01:14:17;;;;;;;0.10;0.10;;;;;;;;;;5012044;28;20493;-82
2024/02/15 01:16:44;;;;;;;0.20;0.20;;;;;;;;;;4996080;28;20374;-83
2024/02/15 01:19:10;;;;;;;0.15;0.15;;;;;;;;;;4996314;28;20123;-85
2024/02/15 01:21:36;;;;;;;0.10;0.10;;;;;;;;;;4995564;28;20087;-83
2024/02/15 01:24:03;;;;;;;0.10;0.10;;;;;;;;;;5013400;28;20084;-83
2024/02/15 01:26:29;;;;;;;0.20;0.20;;;;;;;;;;4995768;28;20049;-82
2024/02/15 01:28:55;;;;;;;0.10;0.10;;;;;;;;;;5012053;28;20140;-82
2024/02/15 01:31:22;;;;;;;0.10;0.10;;;;;;;;;;4995704;28;20046;-82
2024/02/15 01:33:48;;;;;;;0.10;0.10;;;;;;;;;;4995549;28;20060;-83
2024/02/15 01:36:17;;;;;;;0.10;0.10;;;;;;;;;;5011784;28;20042;-83
2024/02/15 01:38:43;;;;;;;0.10;0.10;;;;;;;;;;5011654;28;20440;-82
2024/02/15 01:41:09;;;;;;;0.10;0.10;;;;;;;;;;4995690;28;20045;-82
2024/02/15 01:43:36;;;;;;;0.10;0.10;;;;;;;;;;4995558;28;20065;-82
2024/02/15 01:46:03;;;;;;;0.50;0.50;;;;;;;;;;5011477;28;20074;-81
2024/02/15 01:48:30;;;;;;;0.20;0.20;;;;;;;;;;4995342;28;20053;-82
2024/02/15 01:51:03;;;;;;;0.30;0.30;;;;;;;;;;4995417;28;20095;-82
2024/02/15 01:53:30;;;;;;;0.20;0.20;;;;;;;;;;4979669;28;20060;-82
2024/02/15 01:55:57;;;;;;;0.10;0.10;;;;;;;;;;5011226;28;20054;-82
2024/02/15 01:58:23;;;;;;;0.10;0.10;;;;;;;;;;4995195;28;20512;-82
2024/02/15 02:00:49;;;;;;;0.20;0.20;;;;;;;;;;4995025;28;20096;-82
2024/02/15 02:03:15;;;;;;;0.10;0.10;;;;;;;;;;5011211;28;20046;-83
2024/02/15 02:05:43;;;;;;;0.17;0.17;;;;;;;;;;4995044;28;20743;-83
2024/02/15 02:08:09;;;;;;;0.20;0.20;;;;;;;;;;4995401;28;20383;-82
2024/02/15 02:10:37;;;;;;;0.20;0.20;;;;;;;;;;4994860;28;20486;-82
2024/02/15 02:13:03;;;;;;;0.20;0.20;;;;;;;;;;4994959;28;20084;-82
2024/02/15 02:15:31;;;;;;;0.10;0.10;;;;;;;;;;5011196;28;20096;-83
2024/02/15 02:18:00;;;;;;;0.15;0.15;;;;;;;;;;5010873;28;20041;-82
2024/02/15 02:20:27;;;;;;;0.20;0.20;;;;;;;;;;4979623;28;20053;-83
2024/02/15 02:22:57;;;;;;;0.10;0.10;;;;;;;;;;5013214;28;20378;-82
2024/02/15 02:25:26;;;;;;;0.10;0.10;;;;;;;;;;5017649;28;20113;-82
2024/02/15 02:27:52;;;;;;;0.10;0.10;;;;;;;;;;5017780;28;20389;-82
2024/02/15 02:30:18;;;;;;;0.43;0.43;;;;;;;;;;5018699;28;20049;-81
2024/02/15 02:32:48;;;;;;;0.10;0.10;;;;;;;;;;5001731;28;20060;-81
2024/02/15 02:35:15;;;;;;;0.17;0.17;;;;;;;;;;5001319;28;20084;-81
2024/02/15 02:37:42;;;;;;;0.10;0.10;;;;;;;;;;5001393;28;20042;-82
2024/02/15 02:40:12;;;;;;;0.10;0.10;;;;;;;;;;5001081;28;20038;-81
2024/02/15 02:42:49;;;;;;;0.10;0.10;;;;;;;;;;5002041;28;20049;-82
2024/02/15 02:45:15;;;;;;;0.10;0.10;;;;;;;;;;5001243;28;20042;-81
2024/02/15 02:47:41;;;;;;;0.10;0.10;;;;;;;;;;5017426;28;20081;-82
2024/02/15 02:50:08;;;;;;;0.20;0.20;;;;;;;;;;5017235;28;20536;-82
2024/02/15 02:52:34;;;;;;;0.10;0.10;;;;;;;;;;5001227;28;20077;-82
2024/02/15 02:55:01;;;;;;;0.10;0.10;;;;;;;;;;5017205;28;20505;-82
2024/02/15 02:57:27;;;;;;;0.20;0.20;;;;;;;;;;5001000;28;20052;-82
2024/02/15 02:59:53;;;;;;;0.20;0.20;;;;;;;;;;5000955;28;20049;-82
2024/02/15 03:02:19;;;;;;;0.10;0.10;;;;;;;;;;5017266;28;20044;-83
2024/02/15 03:04:45;;;;;;;0.10;0.10;;;;;;;;;;5034043;28;20042;-83
2024/02/15 03:07:16;;;;;;;0.10;0.10;;;;;;;;;;5017454;28;20042;-82
2024/02/15 03:09:42;;;;;;;0.10;0.10;;;;;;;;;;5001605;28;20048;-82
2024/02/15 03:12:09;;;;;;;0.10;0.10;;;;;;;;;;5000879;28;20184;-81
2024/02/15 03:14:35;;;;;;;0.10;0.10;;;;;;;;;;5017442;28;20038;-81
2024/02/15 03:17:03;;;;;;;0.32;0.30;;;;;;;;;;5000835;28;20073;-82
2024/02/15 03:19:30;;;;;;;0.10;0.10;;;;;;;;;;5001078;28;20037;-81
2024/02/15 03:21:56;;;;;;;0.10;0.10;;;;;;;;;;5000958;28;20042;-82
2024/02/15 03:24:23;;;;;;;0.10;0.10;;;;;;;;;;5033620;28;20038;-82
2024/02/15 03:26:49;;;;;;;0.10;0.10;;;;;;;;;;5017204;28;20445;-82
2024/02/15 03:29:15;;;;;;;0.10;0.10;;;;;;;;;;5000788;28;20049;-81
2024/02/15 03:31:41;;;;;;;0.30;0.30;;;;;;;;;;5017151;28;20124;-82
2024/02/15 03:34:07;;;;;;;0.10;0.10;;;;;;;;;;5000828;28;20046;-82
2024/02/15 03:36:33;;;;;;;0.38;0.38;;;;;;;;;;4996648;28;20116;-82
2024/02/15 03:38:59;;;;;;;0.10;0.10;;;;;;;;;;4997613;28;20042;-82
2024/02/15 03:41:30;;;;;;;0.10;0.10;;;;;;;;;;5013616;28;20046;-82
2024/02/15 03:43:58;;;;;;;0.10;0.10;;;;;;;;;;4998002;28;20042;-82
2024/02/15 03:46:24;;;;;;;0.10;0.10;;;;;;;;;;4997758;28;20089;-82
2024/02/15 03:48:51;;;;;;;0.10;0.10;;;;;;;;;;5013687;28;20080;-81
2024/02/15 03:51:22;;;;;;;0.10;0.10;;;;;;;;;;4997535;28;20111;-83
2024/02/15 03:53:49;;;;;;;0.10;0.10;;;;;;;;;;4998214;28;20077;-82
2024/02/15 03:56:15;;;;;;;0.10;0.10;;;;;;;;;;4997147;28;20058;-82
2024/02/15 03:58:41;;;;;;;0.80;0.80;;;;;;;;;;4997062;28;20183;-82
2024/02/15 04:01:09;;;;;;;0.10;0.10;;;;;;;;;;5013323;28;20053;-82
2024/02/15 04:03:35;;;;;;;0.10;0.10;;;;;;;;;;4997737;28;20041;-82
2024/02/15 04:06:01;;;;;;;0.20;0.20;;;;;;;;;;5014633;28;20041;-82
2024/02/15 04:08:28;;;;;;;0.10;0.10;;;;;;;;;;4996943;28;20114;-82
2024/02/15 04:10:54;;;;;;;0.20;0.20;;;;;;;;;;4997353;28;20042;-83
2024/02/15 04:13:22;;;;;;;0.20;0.20;;;;;;;;;;5013291;28;20053;-82
2024/02/15 04:15:50;;;;;;;0.63;0.63;;;;;;;;;;4996890;28;20048;-82
2024/02/15 04:18:16;;;;;;;0.10;0.10;;;;;;;;;;4996999;28;20046;-81
2024/02/15 04:20:45;;;;;;;0.10;0.10;;;;;;;;;;5012853;28;20044;-82
2024/02/15 04:23:12;;;;;;;0.15;0.15;;;;;;;;;;4997102;28;20456;-82
2024/02/15 04:25:38;;;;;;;0.10;0.10;;;;;;;;;;4996743;28;20042;-82
2024/02/15 04:28:05;;;;;;;0.10;0.10;;;;;;;;;;5012928;28;20042;-83
2024/02/15 04:30:31;;;;;;;0.30;0.30;;;;;;;;;;4996666;28;20048;-82
2024/02/15 04:32:57;;;;;;;0.10;0.10;;;;;;;;;;4996917;28;20053;-82
2024/02/15 04:35:27;;;;;;;0.20;0.20;;;;;;;;;;5012813;28;20041;-83
2024/02/15 04:37:53;;;;;;;0.10;0.10;;;;;;;;;;5012734;28;20045;-83
2024/02/15 04:40:20;;;;;;;0.20;0.20;;;;;;;;;;4996804;28;20042;-82
2024/02/15 04:42:47;;;;;;;0.10;0.10;;;;;;;;;;4996694;28;20085;-83
2024/02/15 04:45:14;;;;;;;2.50;0.50;;;;;;;;;;5012679;28;20068;-81
2024/02/15 04:47:41;;;;;;;0.20;0.20;;;;;;;;;;4996330;28;20046;-82
2024/02/15 04:50:07;;;;;;;0.10;0.10;;;;;;;;;;4996419;28;20126;-82
2024/02/15 04:52:34;;;;;;;0.10;0.10;;;;;;;;;;4996588;28;20059;-82
2024/02/15 04:55:00;;;;;;;0.20;0.20;;;;;;;;;;4996303;28;20058;-82
2024/02/15 04:57:30;;;;;;;0.10;0.10;;;;;;;;;;5012359;28;20046;-82
2024/02/15 04:59:56;;;;;;;0.10;0.10;;;;;;;;;;4996478;28;20080;-82
2024/02/15 05:02:24;;;;;;;0.20;0.20;;;;;;;;;;5012676;28;20405;-82
2024/02/15 05:04:56;;;;;;;0.10;0.10;;;;;;;;;;5012302;28;20684;-81
2024/02/15 05:07:22;;;;;;;0.22;0.22;;;;;;;;;;4996816;28;20053;-82
2024/02/15 05:09:52;;;;;;;0.20;0.20;;;;;;;;;;5012116;28;20038;-82
2024/02/15 05:12:24;;;;;;;0.20;0.20;;;;;;;;;;5012421;28;20077;-82
2024/02/15 05:14:50;;;;;;;;;;;;;;;;;;4996379;28;20498;-81
2024/02/15 05:17:17;;;;;;;0.10;0.10;;;;;;;;;;5011927;28;19940;-82
2024/02/15 05:19:43;;;;;;;0.10;0.10;;;;;;;;;;4995754;28;20117;-82
2024/02/15 05:22:11;;;;;;;0.30;0.30;;;;;;;;;;4995708;28;20042;-82
2024/02/15 05:24:38;;;;;;;0.15;0.15;;;;;;;;;;5011939;28;20038;-82
2024/02/15 05:27:05;;;;;;;0.20;0.20;;;;;;;;;;4996116;28;20049;-81
2024/02/15 05:29:34;;;;;;;1.33;1.23;;;;;;;;;;4995501;28;20042;-82
2024/02/15 05:32:01;;;;;;;0.20;0.20;;;;;;;;;;4995795;28;20108;-82
2024/02/15 05:34:29;;;;;;;0.13;0.13;;;;;;;;;;5011820;28;20060;-82
2024/02/15 05:36:55;;;;;;;0.20;0.20;;;;;;;;;;5012227;28;20049;-82
2024/02/15 05:39:22;;;;;;;0.15;0.15;;;;;;;;;;5011737;28;20502;-83
2024/02/15 05:41:48;;;;;;;0.20;0.20;;;;;;;;;;5011506;28;20030;-83
2024/02/15 05:44:18;;;;;;;0.10;0.10;;;;;;;;;;5011562;28;20062;-83
2024/02/15 05:46:45;;;;;;;0.30;0.30;;;;;;;;;;5011514;28;20042;-82
2024/02/15 05:49:15;;;;;;;0.20;0.20;;;;;;;;;;4995264;28;20504;-83
2024/02/15 05:51:41;;;;;;;0.10;0.10;;;;;;;;;;4995782;28;20491;-82
2024/02/15 05:54:07;;;;;;;0.57;0.57;;;;;;;;;;5012246;28;20556;-82
2024/02/15 05:56:33;;;;;;;0.35;0.35;;;;;;;;;;5014825;28;20116;-82
2024/02/15 05:59:02;;;;;;;0.10;0.10;;;;;;;;;;4997637;28;20048;-82
2024/02/15 06:01:29;;;;;;;0.10;0.10;;;;;;;;;;5015101;28;20033;-83
2024/02/15 06:03:55;;;;;;;0.52;0.52;;;;;;;;;;4998642;28;20041;-82
2024/02/15 06:06:22;;;;;;;0.40;0.30;;;;;;;;;;5014570;28;20041;-83
2024/02/15 06:08:48;;;;;;;0.10;0.10;;;;;;;;;;4998424;28;20206;-82
2024/02/15 06:11:15;;;;;;;0.13;0.13;;;;;;;;;;5014702;28;20064;-82
2024/02/15 06:13:41;;;;;;;0.20;0.20;;;;;;;;;;4998078;28;20528;-82
2024/02/15 06:16:09;;;;;;;0.30;0.30;;;;;;;;;;5014334;28;20041;-82
2024/02/15 06:18:35;;;;;;;0.17;0.17;;;;;;;;;;4998402;28;20052;-82
2024/02/15 06:21:01;;;;;;;0.80;0.47;;;;;;;;;;4998142;28;20080;-82
2024/02/15 06:23:29;;;;;;;0.45;0.45;;;;;;;;;;4998496;28;20055;-82
2024/02/15 06:25:57;;;;;;;0.15;0.15;;;;;;;;;;4998141;28;20478;-82
2024/02/15 06:39:45;;;;;;;0.15;0.15;;;;;;;;;;5014374;28;20037;-82
2024/02/15 06:42:14;;;;;;;0.20;0.20;;;;;;;;;;4998252;28;20067;-81
2024/02/15 06:44:40;;;;;;;0.30;0.30;;;;;;;;;;4998420;28;20068;-81
2024/02/15 06:47:08;;;;;;;0.10;0.10;;;;;;;;;;5014185;28;20128;-82
2024/02/15 06:49:34;;;;;;;0.10;0.10;;;;;;;;;;5014000;28;20052;-81
2024/02/15 06:52:02;;;;;;;0.10;0.10;;;;;;;;;;4997831;28;20128;-82
2024/02/15 06:54:28;;;;;;;0.13;0.13;;;;;;;;;;5010786;28;20073;-82
2024/02/15 06:56:54;;;;;;;0.30;0.30;;;;;;;;;;5010995;28;20417;-82
2024/02/15 06:59:23;;;;;;;0.43;0.43;;;;;;;;;;5010688;28;20041;-81
2024/02/15 07:01:52;;;;;;;0.20;0.20;;;;;;;;;;5010655;28;20038;-81
2024/02/15 07:04:18;;;;;;;0.13;0.13;;;;;;;;;;5010787;28;20080;-82
2024/02/15 07:06:47;;;;;;;0.30;0.30;;;;;;;;;;5010669;28;20490;-82
2024/02/15 07:09:15;;;;;;;0.10;0.10;;;;;;;;;;4995576;28;20073;-81
2024/02/15 07:11:41;;;;;;;0.22;0.22;;;;;;;;;;5014241;28;20149;-82
2024/02/15 07:14:08;;;;;;;0.10;0.10;;;;;;;;;;5014324;28;20513;-81
2024/02/15 07:16:35;;;;;;;0.17;0.17;;;;;;;;;;4998206;28;20049;-82
2024/02/15 07:19:03;;;;;;;0.10;0.10;;;;;;;;;;5014352;28;20092;-81
2024/02/15 07:21:29;;;;;;;0.10;0.10;;;;;;;;;;4998496;28;20049;-80
2024/02/15 07:23:56;;;;;;;0.10;0.10;;;;;;;;;;4998266;28;20033;-80
2024/02/15 07:26:25;;;;;;;0.10;0.10;;;;;;;;;;4998162;28;20034;-80
2024/02/15 07:28:54;;;;;;;0.20;0.20;;;;;;;;;;4998567;28;20045;-81
2024/02/15 07:31:23;;;;;;;0.17;0.17;;;;;;;;;;4997737;28;20050;-81
2024/02/15 07:33:51;;;;;;;0.55;0.40;;;;;;;;;;4998026;28;20041;-80
2024/02/15 07:36:23;;;;;;;0.10;0.10;;;;;;;;;;5014142;28;20049;-80
2024/02/15 07:38:51;;;;;;;;;;;;;;;;;;5015357;28;20540;-81
2024/02/15 07:41:24;;;;;;;0.10;0.10;;;;;;;;;;5013709;28;19917;-80
2024/02/15 07:43:50;;;;;;;0.20;0.20;;;;;;;;;;4997662;28;20042;-82
2024/02/15 07:46:16;;;;;;;0.10;0.10;;;;;;;;;;4997869;28;20088;-82
2024/02/15 07:48:46;;;;;;;0.10;0.10;;;;;;;;;;4997498;28;20189;-82
2024/02/15 07:51:18;;;;;;;0.10;0.10;;;;;;;;;;4997260;28;20401;-82
2024/02/15 07:53:44;;;;;;;0.20;0.20;;;;;;;;;;5015084;28;20046;-81
2024/02/15 07:56:11;;;;;;;0.20;0.20;;;;;;;;;;5013387;28;20506;-81
2024/02/15 07:58:41;;;;;;;0.15;0.15;;;;;;;;;;5013472;28;20046;-81
2024/02/15 08:01:09;;;;;;;0.10;0.10;;;;;;;;;;4997526;28;20050;-82
2024/02/15 08:03:35;;;;;;;0.20;0.17;;;;;;;;;;5030045;28;20041;-82
2024/02/15 08:06:06;;;;;;;0.10;0.10;;;;;;;;;;4997526;28;20084;-82
2024/02/15 08:08:34;;;;;;;0.10;0.10;;;;;;;;;;4997832;28;20041;-81
2024/02/15 08:11:01;;;;;;;0.28;0.28;;;;;;;;;;4996901;28;20042;-81
2024/02/15 08:13:29;;;;;;;0.40;0.40;;;;;;;;;;4996526;28;20038;-82
2024/02/15 08:15:55;;;;;;;0.10;0.10;;;;;;;;;;5013244;28;20038;-81
2024/02/15 08:18:21;;;;;;;0.10;0.10;;;;;;;;;;5029362;28;20038;-82
2024/02/15 08:20:48;;;;;;;0.20;0.20;;;;;;;;;;5012622;28;20073;-82
2024/02/15 08:23:14;;;;;;;0.20;0.20;;;;;;;;;;5012857;28;20034;-81
2024/02/15 08:25:41;;;;;;;0.47;0.47;;;;;;;;;;5012953;28;20045;-82
2024/02/15 08:28:07;;;;;;;0.20;0.20;;;;;;;;;;4999864;28;20065;-82
2024/02/15 08:30:33;;;;;;;0.22;0.22;;;;;;;;;;5012965;28;20058;-81
2024/02/15 08:32:59;;;;;;;0.20;0.20;;;;;;;;;;5012611;28;20042;-84
2024/02/15 08:35:25;;;;;;;2.92;0.68;;;;;;;;;;4996599;28;20042;-82
2024/02/15 08:37:52;;;;;;;0.10;0.10;;;;;;;;;;4996552;28;20046;-83
2024/02/15 08:40:24;;;;;;;0.30;0.30;;;;;;;;;;4996761;28;20052;-82
2024/02/15 08:42:50;;;;;;;0.20;0.20;;;;;;;;;;4997241;28;20142;-82
2024/02/15 08:45:16;;;;;;;0.10;0.10;;;;;;;;;;5012538;28;20316;-85
2024/02/15 08:47:43;;;;;;;0.10;0.10;;;;;;;;;;4996215;28;20077;-83
2024/02/15 08:50:09;;;;;;;0.10;0.10;;;;;;;;;;4996527;28;20101;-82
2024/02/15 08:52:37;;;;;;;0.20;0.20;;;;;;;;;;4996369;28;20490;-83
2024/02/15 08:55:07;;;;;;;0.10;0.10;;;;;;;;;;4996318;28;20061;-82
2024/02/15 08:57:33;;;;;;;0.20;0.20;;;;;;;;;;4996269;28;20081;-82
2024/02/15 09:00:00;;;;;;;0.20;0.20;;;;;;;;;;4996332;28;20088;-82
2024/02/15 09:02:26;;;;;;;0.20;0.20;;;;;;;;;;4996231;28;20389;-82
2024/02/15 09:04:52;;;;;;;0.10;0.10;;;;;;;;;;4995827;28;20043;-83
2024/02/15 09:07:18;;;;;;;0.20;0.20;;;;;;;;;;4995587;28;20041;-83
2024/02/15 09:09:44;;;;;;;0.10;0.10;;;;;;;;;;5011796;28;20045;-82
2024/02/15 09:12:10;;;;;;;0.20;0.20;;;;;;;;;;4995836;28;20046;-82
2024/02/15 09:14:37;;;;;;;0.10;0.10;;;;;;;;;;4994979;28;20041;-82
2024/02/15 09:17:07;;;;;;;0.10;0.10;;;;;;;;;;5011862;28;20128;-82
2024/02/15 09:19:36;;;;;;;0.30;0.30;;;;;;;;;;5003118;28;20038;-83
2024/02/15 09:22:06;;;;;;;0.10;0.10;;;;;;;;;;4996026;28;20044;-83
2024/02/15 09:24:35;;;;;;;0.10;0.10;;;;;;;;;;4995548;28;20037;-83
2024/02/15 09:27:01;;;;;;;0.10;0.10;;;;;;;;;;4995761;28;20046;-83
2024/02/15 09:29:35;;;;;;;0.20;0.20;;;;;;;;;;4995238;28;20129;-83
2024/02/15 09:32:03;;;;;;;0.10;0.10;;;;;;;;;;4995150;28;20137;-84
2024/02/15 09:34:29;;;;;;;0.10;0.10;;;;;;;;;;4994459;28;20049;-83
2024/02/15 09:36:56;;;;;;;0.10;0.10;;;;;;;;;;4995331;28;20080;-82
2024/02/15 09:39:25;;;;;;;0.10;0.10;;;;;;;;;;4995568;28;20049;-84
2024/02/15 09:41:58;;;;;;;0.10;0.10;;;;;;;;;;4994992;28;20069;-85
2024/02/15 09:44:27;;;;;;;0.10;0.10;;;;;;;;;;4995199;28;20061;-84
2024/02/15 09:47:15;;;;;;;0.10;0.10;;;;;;;;;;4995471;28;20038;-84
2024/02/15 09:49:41;;;;;;;0.10;0.10;;;;;;;;;;5009641;28;20053;-84
2024/02/15 09:52:17;;;;;;;0.20;0.20;;;;;;;;;;5011416;28;20073;-84
2024/02/15 09:54:43;;;;;;;0.13;0.13;;;;;;;;;;5011160;28;20050;-85
2024/02/15 09:57:13;;;;;;;0.10;0.10;;;;;;;;;;5007883;28;20050;-84
2024/02/15 09:59:39;;;;;;;0.20;0.20;;;;;;;;;;4975802;28;20042;-84
2024/02/15 10:02:10;;;;;;;0.10;0.10;;;;;;;;;;4976135;28;20178;-84
2024/02/15 10:04:42;;;;;;;0.10;0.10;;;;;;;;;;4991570;28;20092;-84
2024/02/15 10:07:09;;;;;;;0.20;0.20;;;;;;;;;;4978355;28;20038;-85
2024/02/15 10:09:36;;;;;;;0.10;0.10;;;;;;;;;;4994861;28;20046;-85
2024/02/15 10:12:03;;;;;;;0.10;0.10;;;;;;;;;;5010983;28;20052;-85
2024/02/15 10:14:29;;;;;;;0.10;0.10;;;;;;;;;;5011037;28;20046;-85
2024/02/15 10:16:55;;;;;;;0.10;0.10;;;;;;;;;;5009780;28;20092;-84
2024/02/15 10:19:24;;;;;;;0.10;0.10;;;;;;;;;;4994998;28;20115;-84
2024/02/15 10:21:56;;;;;;;0.10;0.10;;;;;;;;;;4995195;28;20560;-84
2024/02/15 10:24:24;;;;;;;0.17;0.17;;;;;;;;;;4995325;28;20141;-84
2024/02/15 10:26:50;;;;;;;0.10;0.10;;;;;;;;;;4994981;28;20072;-83
2024/02/15 10:29:17;;;;;;;0.10;0.10;;;;;;;;;;4994136;28;20045;-84
2024/02/15 10:32:02;;;;;;;0.10;0.10;;;;;;;;;;4994303;28;20366;-84
2024/02/15 10:34:28;;;;;;;0.10;0.10;;;;;;;;;;4994695;28;20037;-83
2024/02/15 10:36:56;;;;;;;0.10;0.10;;;;;;;;;;5010681;28;20544;-83
2024/02/15 10:39:23;;;;;;;0.10;0.10;;;;;;;;;;4995887;28;20130;-84
2024/02/15 10:41:53;;;;;;;0.10;0.10;;;;;;;;;;5010477;28;20038;-84
2024/02/15 10:44:25;;;;;;;0.20;0.20;;;;;;;;;;5010860;28;20073;-84
2024/02/15 10:46:52;;;;;;;0.20;0.20;;;;;;;;;;4998680;28;20041;-84
2024/02/15 10:49:21;;;;;;;0.10;0.10;;;;;;;;;;4997971;28;20518;-84
2024/02/15 10:51:58;;;;;;;0.10;0.10;;;;;;;;;;4998578;28;20042;-83
2024/02/15 10:54:33;;;;;;;0.30;0.30;;;;;;;;;;5003092;28;20058;-85
2024/02/15 10:57:04;;;;;;;0.10;0.10;;;;;;;;;;5017730;28;20545;-83
2024/02/15 10:59:32;;;;;;;0.10;0.10;;;;;;;;;;5001505;28;20201;-83
2024/02/15 11:01:59;;;;;;;0.10;0.10;;;;;;;;;;5005145;28;20045;-84
2024/02/15 11:04:31;;;;;;;0.17;0.17;;;;;;;;;;5001450;28;20044;-83
2024/02/15 11:06:57;;;;;;;0.20;0.20;;;;;;;;;;5017858;28;20505;-84
2024/02/15 11:09:23;;;;;;;0.10;0.10;;;;;;;;;;5001259;28;20048;-84
2024/02/15 11:11:51;;;;;;;0.10;0.10;;;;;;;;;;5017568;28;20045;-84
2024/02/15 11:14:28;;;;;;;0.10;0.10;;;;;;;;;;5017384;28;20033;-83
2024/02/15 11:16:56;;;;;;;0.10;0.10;;;;;;;;;;5001544;28;20041;-83
2024/02/15 11:19:48;;;;;;;0.10;0.10;;;;;;;;;;5017474;28;20191;-83
2024/02/15 11:22:15;;;;;;;0.10;0.10;;;;;;;;;;5010959;28;20386;-84
2024/02/15 11:24:51;;;;;;;0.10;0.10;;;;;;;;;;5001138;28;20168;-83
2024/02/15 11:27:31;;;;;;;0.10;0.10;;;;;;;;;;5016736;28;20052;-84
2024/02/15 11:30:09;;;;;;;0.30;0.30;;;;;;;;;;5017294;28;20068;-84
2024/02/15 11:32:36;;;;;;;0.20;0.20;;;;;;;;;;5017148;28;20151;-84
2024/02/15 11:35:11;;;;;;;0.30;0.30;;;;;;;;;;5000968;28;20037;-84
2024/02/15 11:37:58;;;;;;;0.10;0.10;;;;;;;;;;5011519;28;20052;-84
2024/02/15 11:40:28;;;;;;;0.10;0.10;;;;;;;;;;5000813;28;20030;-84
2024/02/15 11:42:57;;;;;;;0.10;0.10;;;;;;;;;;5017029;28;20037;-84
2024/02/15 11:45:25;;;;;;;0.10;0.10;;;;;;;;;;5017109;28;20139;-84
2024/02/15 11:47:51;;;;;;;0.10;0.10;;;;;;;;;;5000348;28;20128;-83
2024/02/15 11:50:18;;;;;;;0.47;0.30;;;;;;;;;;5016813;28;20128;-84
2024/02/15 11:52:45;;;;;;;0.10;0.10;;;;;;;;;;5016484;28;20049;-84
2024/02/15 11:55:13;;;;;;;0.20;0.20;;;;;;;;;;5016441;28;20501;-83
2024/02/15 11:57:50;;;;;;;0.10;0.10;;;;;;;;;;5030024;28;20045;-84
2024/02/15 12:19:47;;;;;;;0.10;0.10;;;;;;;;;;5019291;28;20041;-88
2024/02/15 12:22:13;;;;;;;0.10;0.10;;;;;;;;;;4999936;28;20117;-85
2024/02/15 12:24:39;;;;;;;0.20;0.20;;;;;;;;;;5016422;28;20124;-84
2024/02/15 12:27:05;;;;;;;0.10;0.10;;;;;;;;;;5000075;28;20045;-84
2024/02/15 12:29:32;;;;;;;0.10;0.10;;;;;;;;;;5016136;28;20038;-84
2024/02/15 12:31:59;;;;;;;0.10;0.10;;;;;;;;;;4999858;28;20116;-85
2024/02/15 12:34:26;;;;;;;0.10;0.10;;;;;;;;;;4999675;28;20552;-85
2024/02/15 12:36:52;;;;;;;0.10;0.10;;;;;;;;;;4999606;28;20041;-85
2024/02/15 12:39:24;;;;;;;0.20;0.20;;;;;;;;;;4999604;28;20103;-85
2024/02/15 12:41:51;;;;;;;0.20;0.20;;;;;;;;;;4999625;28;20416;-86
2024/02/15 12:44:18;;;;;;;0.10;0.10;;;;;;;;;;5000045;28;20045;-85
2024/02/15 12:46:45;;;;;;;0.10;0.10;;;;;;;;;;5000154;28;20326;-85
2024/02/15 12:49:32;;;;;;;0.10;0.10;;;;;;;;;;5000073;28;20045;-87
2024/02/15 12:52:17;;;;;;;0.10;0.10;;;;;;;;;;4999673;28;20047;-85
2024/02/15 12:54:44;;;;;;;0.10;0.10;;;;;;;;;;5015427;28;20562;-85
2024/02/15 12:57:10;;;;;;;0.10;0.10;;;;;;;;;;5015028;28;20058;-85
2024/02/15 12:59:37;;;;;;;0.10;0.10;;;;;;;;;;4999314;28;20110;-85
2024/02/15 13:02:04;;;;;;;0.10;0.10;;;;;;;;;;4987417;28;20260;-85
2024/02/15 13:04:30;;;;;;;0.10;0.10;;;;;;;;;;5015650;28;20045;-84
2024/02/15 13:06:56;;;;;;;0.10;0.10;;;;;;;;;;4999126;28;20037;-85
2024/02/15 13:09:23;;;;;;;0.10;0.10;;;;;;;;;;5015372;28;20068;-85
2024/02/15 13:11:50;;;;;;;0.10;0.10;;;;;;;;;;5032066;28;20330;-84
2024/02/15 13:14:16;;;;;;;0.10;0.10;;;;;;;;;;5015364;28;20071;-84
2024/02/15 13:16:44;;;;;;;0.10;0.10;;;;;;;;;;5015764;28;20091;-84
2024/02/15 13:19:12;;;;;;;0.10;0.10;;;;;;;;;;5015443;28;20128;-85
2024/02/15 13:21:38;;;;;;;0.10;0.10;;;;;;;;;;5015376;28;20043;-84
2024/02/15 13:24:04;;;;;;;0.10;0.10;;;;;;;;;;5015415;28;20045;-84
2024/02/15 13:26:32;;;;;;;0.10;0.10;;;;;;;;;;5015508;28;20441;-84
2024/02/15 13:28:58;;;;;;;0.10;0.10;;;;;;;;;;5015098;28;20072;-84
2024/02/15 13:31:27;;;;;;;0.20;0.20;;;;;;;;;;5015014;28;20044;-83
2024/02/15 13:33:53;;;;;;;0.20;0.20;;;;;;;;;;5015357;28;20134;-85
2024/02/15 13:36:19;;;;;;;0.10;0.10;;;;;;;;;;5014986;28;20041;-84
2024/02/15 13:38:47;;;;;;;0.10;0.10;;;;;;;;;;4998628;28;20436;-84
2024/02/15 13:41:13;;;;;;;0.10;0.10;;;;;;;;;;5015304;28;20223;-84
2024/02/15 13:43:41;;;;;;;0.10;0.10;;;;;;;;;;5014891;28;20083;-85
2024/02/15 13:46:07;;;;;;;0.20;0.20;;;;;;;;;;5014764;28;20037;-86
2024/02/15 13:48:33;;;;;;;0.10;0.10;;;;;;;;;;5015266;28;20060;-86
2024/02/15 13:50:59;;;;;;;0.10;0.10;;;;;;;;;;5014802;28;20048;-86
2024/02/15 13:53:25;;;;;;;0.10;0.10;;;;;;;;;;5014809;28;20073;-86
2024/02/15 13:55:54;;;;;;;0.10;0.10;;;;;;;;;;4998164;28;20061;-84
2024/02/15 13:58:21;;;;;;;0.10;0.10;;;;;;;;;;5014573;28;20038;-85
2024/02/15 14:00:48;;;;;;;0.10;0.10;;;;;;;;;;5014679;28;20465;-83
2024/02/15 14:03:15;;;;;;;0.40;0.40;;;;;;;;;;5014472;28;20477;-83
2024/02/15 14:05:42;;;;;;;0.10;0.10;;;;;;;;;;4998180;28;20079;-83
2024/02/15 14:08:09;;;;;;;0.10;0.10;;;;;;;;;;4998081;28;20037;-84
2024/02/15 14:10:36;;;;;;;0.10;0.10;;;;;;;;;;5014533;28;20106;-84
2024/02/15 14:13:02;;;;;;;0.30;0.30;;;;;;;;;;5014679;28;20072;-85
2024/02/15 14:15:29;;;;;;;0.10;0.10;;;;;;;;;;5014337;28;20041;-85
2024/02/15 14:17:58;;;;;;;0.10;0.10;;;;;;;;;;5014393;28;20484;-85
2024/02/15 14:20:24;;;;;;;0.20;0.20;;;;;;;;;;5013665;28;20044;-84
2024/02/15 14:22:55;;;;;;;0.13;0.13;;;;;;;;;;5014229;28;20045;-85
2024/02/15 14:25:31;;;;;;;0.10;0.10;;;;;;;;;;5014548;28;20037;-85
2024/02/15 14:27:57;;;;;;;0.10;0.10;;;;;;;;;;5014444;28;20080;-85
2024/02/15 14:33:11;;;;;;;0.75;0.40;;;;;;;;;;5014221;28;20041;-85
2024/02/15 14:35:38;;;;;;;0.10;0.10;;;;;;;;;;5014089;28;20052;-85
2024/02/15 14:38:10;;;;;;;0.10;0.10;;;;;;;;;;5014451;28;20095;-85
2024/02/15 14:40:50;;;;;;;0.20;0.20;;;;;;;;;;5014642;28;20055;-86
2024/02/15 14:43:19;;;;;;;0.28;0.28;;;;;;;;;;4998193;28;20386;-85
2024/02/15 14:45:45;;;;;;;0.10;0.10;;;;;;;;;;5014451;28;20045;-85
2024/02/15 14:48:12;;;;;;;0.10;0.10;;;;;;;;;;4997690;28;20128;-85
2024/02/15 14:50:38;;;;;;;0.10;0.10;;;;;;;;;;5013902;28;20548;-85
2024/02/15 14:53:04;;;;;;;0.20;0.20;;;;;;;;;;5013944;28;20098;-83
2024/02/15 14:55:31;;;;;;;0.28;0.28;;;;;;;;;;5013703;28;20497;-84
2024/02/15 14:57:57;;;;;;;0.10;0.10;;;;;;;;;;5013174;28;20045;-83
2024/02/15 15:00:24;;;;;;;0.10;0.10;;;;;;;;;;5013530;28;20508;-84
2024/02/15 15:02:50;;;;;;;0.10;0.10;;;;;;;;;;5005254;28;20421;-84
2024/02/15 15:13:32;;;;;;;0.10;0.10;;;;;;;;;;5033407;28;20090;-87
2024/02/15 15:15:59;;;;;;;0.10;0.10;;;;;;;;;;5033946;28;20365;-83
2024/02/15 15:18:25;;;;;;;0.15;0.15;;;;;;;;;;5033199;28;20188;-84
2024/02/15 15:20:51;;;;;;;0.10;0.10;;;;;;;;;;5033539;28;20044;-83
2024/02/15 15:23:17;;;;;;;0.20;0.20;;;;;;;;;;5033551;28;20397;-84
2024/02/15 15:25:43;;;;;;;0.10;0.10;;;;;;;;;;5033721;28;20076;-83
2024/02/15 15:28:10;;;;;;;0.10;0.10;;;;;;;;;;5032944;28;20038;-84